Bei Facebook empfehlenBei Twitter postenGoogle plusPinterest

Das Wetter im Erzgebirge am 23.07.2016

Wetter und Klima am 23.07.2016 Holzhau im Erzgebirge (630m ü.NN)
Letzte gemessene Temperatur und Uhrzeit der Messung23:45:00 Uhr16.40 °C
Temperatur (Maximum / Höchstwert) und Uhrzeit der Messung15:30:00 Uhr29.50 °C
Temperatur (Minimum / Tiefstwert) und Uhrzeit der Messung05:00:0012.30 °C
Errechneter Absolutwert der Temperaturschwankungen zwischen Tmin und Tmax des Tages17.20 K
Errechnete Tagesmitteltemperatur19.87292 °C
Gesamt - Niederschlag des Tages (in flüssiger Form)5.18 Liter / m²
Luftdruck (Maximum / Höchstwert) und Zeitpunkt der Messung20:15:00 Uhr1017.70 hPa
Luftdruck (Minimum / Tiefstwert) und Zeitpunkt der Messung06:30:00 Uhr1015.00 hPa
Errechneter Absolutwert der Luftdruckschwankungen des Tages2.70 hPa
Höchste gemessene Windgeschwindigkeit und Uhrzeit der Messung23:45:00 Uhr0.00 km/h
Errechnete Windhäufigkeit in Relation zu den Messwerten des Tages0.00000 %
Niedrigste Windkühle (Windchill) und Zeitpunkt der Messung05:00:00 Uhr12.30 °C
Taupunkt (Maximum / Höchstwert) und Uhrzeit der Messung15:30:00 Uhr18.60 °C
Taupunkt (Minimum / Tiefstwert) und Uhrzeit der Messung05:00:0011.00 °C
Anzahl der automatisch eingelesenen Messwerte 96

Detaillierte Wetter- und Klima- Messwerte für den 23.07.2016 in Holzhau im Erzgebirge (630m ü.NN)
ZeitTemperaturLuftdruckRel. LuftfeuchteWindWindrichtungWindchillTaupunktNiederschlag l/m²
23:45:0016.40 °C1016.20 hPa93.00 %15.30 °C5.18
23:30:0016.30 °C1016.00 hPa93.00 %15.20 °C5.18
23:15:0016.40 °C1016.00 hPa93.00 %15.30 °C5.18
23:00:0016.40 °C1016.10 hPa92.00 %15.10 °C5.18
22:45:0016.40 °C1016.20 hPa92.00 %15.10 °C5.18
22:30:0016.40 °C1016.20 hPa92.00 %15.10 °C5.18
22:15:0016.40 °C1016.40 hPa92.00 %15.10 °C5.18
22:00:0016.40 °C1016.30 hPa92.00 %15.10 °C5.18
21:45:0016.50 °C1016.30 hPa91.00 %15.00 °C5.18
21:30:0016.60 °C1016.60 hPa91.00 %15.10 °C5.18
21:15:0016.50 °C1016.00 hPa91.00 %15.00 °C5.18
21:00:0016.60 °C1016.30 hPa90.00 %15.00 °C5.18
20:45:0016.80 °C1017.10 hPa89.00 %15.00 °C4.66
20:30:0016.80 °C1017.40 hPa88.00 %14.80 °C4.14
20:15:0017.00 °C1017.70 hPa86.00 %14.60 °C3.10
20:00:0017.00 °C1017.30 hPa85.00 %14.50 °C3.10
19:45:0017.00 °C1017.40 hPa84.00 %14.30 °C3.10
19:30:0017.50 °C1017.60 hPa81.00 %14.20 °C2.59
19:15:0018.40 °C1017.70 hPa77.00 %14.30 °C2.07
19:00:0020.40 °C1017.70 hPa72.00 %15.20 °C 
18:45:0021.60 °C1017.30 hPa67.00 %15.20 °C 
18:30:0023.20 °C1017.00 hPa64.00 %16.00 °C 
18:15:0024.90 °C1017.00 hPa62.00 %17.10 °C 
18:00:0025.00 °C1016.90 hPa62.00 %17.20 °C 
17:45:0024.90 °C1016.90 hPa61.00 %16.90 °C 
17:30:0025.30 °C1016.90 hPa60.00 %17.00 °C 
17:15:0025.50 °C1016.90 hPa60.00 %17.20 °C 
17:00:0026.30 °C1016.70 hPa58.00 %17.40 °C 
16:45:0026.80 °C1016.90 hPa57.00 %17.60 °C 
16:30:0026.70 °C1016.90 hPa55.00 %16.90 °C 
16:15:0026.90 °C1017.00 hPa54.00 %16.80 °C 
16:00:0027.90 °C1017.00 hPa51.00 %16.80 °C 
15:45:0029.40 °C1017.00 hPa51.00 %18.20 °C 
15:30:0029.50 °C1017.00 hPa52.00 %18.60 °C 
15:15:0029.20 °C1017.00 hPa52.00 %18.30 °C 
15:00:0029.30 °C1016.70 hPa51.00 %18.10 °C 
14:45:0029.40 °C1016.70 hPa52.00 %18.50 °C 
14:30:0028.50 °C1016.80 hPa50.00 %17.10 °C 
14:15:0029.20 °C1016.90 hPa51.00 %18.00 °C 
14:00:0028.90 °C1016.90 hPa52.00 %18.10 °C 
13:45:0028.80 °C1016.90 hPa52.00 %18.00 °C 
13:30:0029.10 °C1016.90 hPa50.00 %17.60 °C 
13:15:0029.40 °C1016.90 hPa51.00 %18.20 °C 
13:00:0028.90 °C1016.90 hPa51.00 %17.70 °C 
12:45:0028.70 °C1017.10 hPa53.00 %18.20 °C 
12:30:0027.90 °C1017.00 hPa54.00 %17.70 °C 
12:15:0027.70 °C1016.80 hPa54.00 %17.50 °C 
12:00:0027.80 °C1016.60 hPa55.00 %17.90 °C 
11:45:0027.50 °C1016.70 hPa54.00 %17.40 °C 
11:30:0027.40 °C1016.60 hPa56.00 %17.80 °C 
11:15:0027.10 °C1016.50 hPa59.00 %18.40 °C 
11:00:0025.80 °C1016.40 hPa63.00 %18.20 °C 
10:45:0025.10 °C1016.10 hPa62.00 %17.30 °C 
10:30:0024.90 °C1015.90 hPa64.00 %17.60 °C 
10:15:0024.40 °C1015.80 hPa66.00 %17.60 °C 
10:00:0024.10 °C1015.60 hPa67.00 %17.60 °C 
09:45:0023.50 °C1015.60 hPa73.00 %18.40 °C 
09:30:0022.50 °C1015.40 hPa76.00 %18.10 °C 
09:15:0021.50 °C1015.60 hPa83.00 %18.50 °C 
09:00:0020.20 °C1015.30 hPa85.00 %17.60 °C 
08:45:0019.30 °C1015.30 hPa86.00 %16.90 °C 
08:30:0018.90 °C1015.40 hPa87.00 %16.70 °C 
08:15:0018.30 °C1015.30 hPa88.00 %16.30 °C 
08:00:0017.60 °C1015.20 hPa90.00 %15.90 °C 
07:45:0016.80 °C1015.20 hPa91.00 %15.30 °C 
07:30:0015.70 °C1015.30 hPa92.00 %14.40 °C 
07:15:0014.90 °C1015.20 hPa92.00 %13.60 °C 
07:00:0014.30 °C1015.20 hPa93.00 %13.20 °C 
06:45:0013.80 °C1015.20 hPa93.00 %12.70 °C 
06:30:0013.40 °C1015.00 hPa93.00 %12.30 °C 
06:15:0013.00 °C1015.40 hPa93.00 %11.90 °C 
06:00:0012.80 °C1015.30 hPa93.00 %11.70 °C 
05:45:0012.50 °C1015.10 hPa92.00 %11.20 °C 
05:30:0012.40 °C1015.30 hPa92.00 %11.10 °C 
05:15:0012.40 °C1015.20 hPa92.00 %11.10 °C 
05:00:0012.30 °C1015.20 hPa92.00 %11.00 °C 
04:45:0012.30 °C1015.00 hPa92.00 %11.00 °C 
04:30:0012.40 °C1015.10 hPa92.00 %11.10 °C 
04:15:0012.40 °C1015.10 hPa92.00 %11.10 °C 
04:00:0012.40 °C1015.30 hPa91.00 %11.00 °C 
03:45:0012.50 °C1015.30 hPa91.00 %11.10 °C 
03:30:0012.80 °C1015.40 hPa91.00 %11.40 °C 
03:15:0012.90 °C1015.30 hPa91.00 %11.50 °C 
03:00:0012.90 °C1015.30 hPa90.00 %11.30 °C 
02:45:0013.10 °C1015.40 hPa90.00 %11.50 °C 
02:30:0013.30 °C1015.40 hPa91.00 %11.90 °C 
02:15:0013.40 °C1015.40 hPa90.00 %11.80 °C 
02:00:0013.60 °C1015.70 hPa90.00 %12.00 °C 
01:45:0013.90 °C1015.70 hPa90.00 %12.30 °C 
01:30:0014.10 °C1015.80 hPa90.00 %12.50 °C 
01:15:0014.30 °C1015.80 hPa89.00 %12.50 °C 
01:00:0014.50 °C1015.90 hPa89.00 %12.70 °C 
00:45:0014.80 °C1015.80 hPa89.00 %13.00 °C 
00:30:0014.90 °C1016.10 hPa89.00 %13.10 °C 
00:15:0014.90 °C1016.20 hPa89.00 %13.10 °C 
00:00:0015.10 °C1016.20 hPa89.00 %13.30 °C 

Permanenter Link zu dieser Seite: Wetter im Erzgebirge am 23.07.2016
Performance-Info: Die Erstellung der Seite / Statistik(en) / Tabelle(n) erforderte 5 Datenbankserver-Abfrage(n) und dauerte 97 Millisekunden. (Dieser Messwert ist von der Gesamt-Auslastung des Servers abhängig.)
Erzgebirge - Wetter | Erzgebirge - Wetter (Mobilgeräte) | Komplette Klimadatenbank